Time;durP1;ratioP1;P1;durP2;ratioP2;P2;SDS_P1;SDS_P2;PMS_P1;PMS_P2;Temp;Humidity;BMP_temperature;BMP_pressure;BME280_temperature;BME280_humidity;BME280_pressure;Samples;Min_cycle;Max_cycle;Signal;HPM_P1;HPM_P2
2021/08/14 00:02:23;;;;;;;20.60;14.90;;;;;;;;;;5053985;28;20045;-68
2021/08/14 00:04:50;;;;;;;24.73;16.40;;;;;;;;;;5051324;28;20060;-67
2021/08/14 00:07:17;;;;;;;21.45;15.85;;;;;;;;;;5054371;28;20043;-67
2021/08/14 00:09:44;;;;;;;22.30;16.50;;;;;;;;;;5048410;28;20040;-68
2021/08/14 00:12:12;;;;;;;27.38;14.45;;;;;;;;;;5054470;28;20044;-68
2021/08/14 00:14:39;;;;;;;22.17;15.00;;;;;;;;;;5068885;28;20033;-68
2021/08/14 00:17:06;;;;;;;20.98;14.05;;;;;;;;;;5055172;28;20033;-68
2021/08/14 00:19:33;;;;;;;25.55;15.57;;;;;;;;;;5057327;28;20087;-68
2021/08/14 00:22:00;;;;;;;19.90;15.05;;;;;;;;;;5057520;28;20047;-68
2021/08/14 00:24:27;;;;;;;18.40;13.75;;;;;;;;;;5053269;28;20025;-69
2021/08/14 00:26:54;;;;;;;23.08;14.65;;;;;;;;;;5049429;28;20032;-68
2021/08/14 00:29:21;;;;;;;19.67;13.48;;;;;;;;;;5060865;28;20056;-69
2021/08/14 00:31:48;;;;;;;18.45;12.13;;;;;;;;;;5054611;28;20043;-69
2021/08/14 00:34:16;;;;;;;18.33;12.25;;;;;;;;;;5068544;28;20037;-68
2021/08/14 00:36:43;;;;;;;19.83;12.30;;;;;;;;;;5054235;28;20031;-69
2021/08/14 00:39:10;;;;;;;16.30;11.18;;;;;;;;;;5038295;28;20045;-69
2021/08/14 00:41:37;;;;;;;15.13;11.05;;;;;;;;;;5055027;28;20049;-69
2021/08/14 00:44:04;;;;;;;14.95;10.88;;;;;;;;;;5055149;28;20501;-68
2021/08/14 00:46:33;;;;;;;16.40;10.52;;;;;;;;;;5054066;28;20064;-69
2021/08/14 00:49:03;;;;;;;13.93;8.95;;;;;;;;;;5053337;28;20555;-69
2021/08/14 00:51:30;;;;;;;17.52;10.23;;;;;;;;;;5053569;28;20389;-69
2021/08/14 00:53:57;;;;;;;14.85;9.10;;;;;;;;;;5055797;28;20029;-68
2021/08/14 00:56:26;;;;;;;12.48;8.32;;;;;;;;;;5048456;28;20116;-67
2021/08/14 00:58:53;;;;;;;15.93;10.43;;;;;;;;;;5051177;28;20035;-68
2021/08/14 01:01:24;;;;;;;13.25;8.07;;;;;;;;;;5053978;28;20402;-68
2021/08/14 01:03:53;;;;;;;10.75;8.48;;;;;;;;;;5054958;28;20044;-68
2021/08/14 01:06:20;;;;;;;15.85;9.55;;;;;;;;;;5052543;28;20498;-69
2021/08/14 01:08:51;;;;;;;13.70;8.73;;;;;;;;;;5051436;28;20025;-67
2021/08/14 01:11:18;;;;;;;14.02;9.02;;;;;;;;;;5058124;28;20045;-67
2021/08/14 01:13:46;;;;;;;10.70;6.05;;;;;;;;;;5043737;28;20033;-67
2021/08/14 01:16:13;;;;;;;12.90;6.95;;;;;;;;;;5053216;28;20037;-68
2021/08/14 01:18:44;;;;;;;12.38;7.65;;;;;;;;;;5052684;28;20033;-68
2021/08/14 01:21:32;;;;;;;10.75;6.82;;;;;;;;;;5051070;28;20037;-68
2021/08/14 01:23:59;;;;;;;14.50;6.50;;;;;;;;;;5053314;28;20036;-68
2021/08/14 01:26:26;;;;;;;11.23;5.90;;;;;;;;;;5071204;28;20032;-68
2021/08/14 01:28:53;;;;;;;10.23;5.22;;;;;;;;;;5063236;28;20426;-69
2021/08/14 01:31:21;;;;;;;11.80;5.32;;;;;;;;;;5053440;28;20029;-71
2021/08/14 01:33:48;;;;;;;10.55;4.88;;;;;;;;;;5055771;28;20060;-68
2021/08/14 01:36:16;;;;;;;10.43;5.15;;;;;;;;;;5054526;28;20439;-68
2021/08/14 01:38:47;;;;;;;9.23;6.05;;;;;;;;;;5051360;28;20116;-69
2021/08/14 01:41:15;;;;;;;24.00;6.80;;;;;;;;;;5050075;28;20032;-67
2021/08/14 01:44:02;;;;;;;11.98;4.82;;;;;;;;;;5060059;28;20035;-68
2021/08/14 01:46:31;;;;;;;7.38;4.38;;;;;;;;;;5049075;28;20091;-69
2021/08/14 01:49:01;;;;;;;9.75;4.57;;;;;;;;;;5043456;28;20107;-68
2021/08/14 01:51:29;;;;;;;8.25;4.05;;;;;;;;;;5020048;28;20040;-68
2021/08/14 01:53:58;;;;;;;6.70;4.03;;;;;;;;;;5061110;28;20788;-68
2021/08/14 01:56:26;;;;;;;8.10;3.88;;;;;;;;;;5047083;28;20481;-68
2021/08/14 01:58:53;;;;;;;9.63;4.88;;;;;;;;;;5043532;28;20055;-68
2021/08/14 02:01:21;;;;;;;7.25;3.30;;;;;;;;;;5052648;28;20041;-68
2021/08/14 02:03:49;;;;;;;6.95;3.40;;;;;;;;;;5055784;28;20119;-68
2021/08/14 02:06:16;;;;;;;8.95;4.30;;;;;;;;;;5061187;28;20135;-68
2021/08/14 02:08:43;;;;;;;12.25;4.55;;;;;;;;;;5060593;28;20039;-68
2021/08/14 02:11:12;;;;;;;7.35;3.10;;;;;;;;;;5039216;28;20040;-67
2021/08/14 02:13:40;;;;;;;9.43;3.70;;;;;;;;;;5046851;28;20060;-67
2021/08/14 02:16:07;;;;;;;7.50;4.53;;;;;;;;;;5031917;28;20444;-68
2021/08/14 02:18:34;;;;;;;9.93;5.47;;;;;;;;;;5049068;28;20095;-68
2021/08/14 02:21:01;;;;;;;11.48;7.53;;;;;;;;;;5051053;28;20112;-68
2021/08/14 02:23:28;;;;;;;13.57;8.80;;;;;;;;;;5056053;28;20028;-68
2021/08/14 02:25:56;;;;;;;15.45;10.50;;;;;;;;;;5050422;28;20039;-68
2021/08/14 02:28:23;;;;;;;13.85;10.13;;;;;;;;;;5059395;28;20036;-68
2021/08/14 02:30:50;;;;;;;15.38;10.68;;;;;;;;;;5050936;28;20037;-68
2021/08/14 02:33:17;;;;;;;15.52;10.88;;;;;;;;;;5057648;28;20032;-67
2021/08/14 02:35:44;;;;;;;16.90;12.40;;;;;;;;;;5050880;28;20116;-68
2021/08/14 02:38:12;;;;;;;17.20;11.68;;;;;;;;;;5048201;28;20041;-69
2021/08/14 02:40:39;;;;;;;14.18;10.02;;;;;;;;;;5051187;28;20036;-67
2021/08/14 02:43:06;;;;;;;16.30;9.48;;;;;;;;;;5058744;28;20067;-68
2021/08/14 02:45:34;;;;;;;16.17;10.43;;;;;;;;;;5061546;28;20033;-68
2021/08/14 02:48:01;;;;;;;12.23;8.48;;;;;;;;;;5052340;28;20033;-68
2021/08/14 02:50:28;;;;;;;14.35;10.35;;;;;;;;;;5036552;28;20037;-67
2021/08/14 02:52:55;;;;;;;15.10;11.38;;;;;;;;;;5057446;28;20119;-67
2021/08/14 02:55:23;;;;;;;14.90;12.65;;;;;;;;;;5052296;28;20461;-68
2021/08/14 02:57:50;;;;;;;14.82;11.93;;;;;;;;;;5050134;28;20032;-67
2021/08/14 03:00:17;;;;;;;15.82;10.35;;;;;;;;;;5052322;28;20501;-69
2021/08/14 03:02:44;;;;;;;15.80;8.55;;;;;;;;;;5046372;28;20124;-67
2021/08/14 03:05:12;;;;;;;9.82;7.55;;;;;;;;;;5053453;28;20090;-70
2021/08/14 03:07:39;;;;;;;9.65;7.47;;;;;;;;;;5052066;28;20047;-69
2021/08/14 03:10:06;;;;;;;11.88;6.50;;;;;;;;;;5042426;28;20047;-69
2021/08/14 03:12:33;;;;;;;11.60;7.13;;;;;;;;;;5058937;28;20060;-69
2021/08/14 03:15:00;;;;;;;10.57;5.70;;;;;;;;;;5049224;28;20113;-68
2021/08/14 03:17:27;;;;;;;7.85;4.22;;;;;;;;;;5042856;28;20041;-69
2021/08/14 03:19:55;;;;;;;9.30;5.60;;;;;;;;;;5041558;28;20521;-66
2021/08/14 03:22:22;;;;;;;8.30;4.72;;;;;;;;;;5049995;28;20063;-68
2021/08/14 03:24:50;;;;;;;9.20;3.30;;;;;;;;;;5056879;28;20695;-67
2021/08/14 03:27:17;;;;;;;6.10;2.45;;;;;;;;;;5062095;28;20497;-68
2021/08/14 03:29:44;;;;;;;5.95;2.28;;;;;;;;;;5057732;28;20045;-67
2021/08/14 03:32:11;;;;;;;6.47;2.00;;;;;;;;;;5034069;28;20075;-68
2021/08/14 03:34:38;;;;;;;6.53;1.75;;;;;;;;;;5049958;28;20036;-69
2021/08/14 03:37:06;;;;;;;3.80;1.75;;;;;;;;;;5049457;28;20037;-68
2021/08/14 03:39:36;;;;;;;6.32;2.05;;;;;;;;;;5061614;28;20045;-67
2021/08/14 03:42:03;;;;;;;7.93;2.88;;;;;;;;;;5050748;28;20040;-68
2021/08/14 03:44:30;;;;;;;5.63;2.05;;;;;;;;;;5050143;28;20025;-68
2021/08/14 03:46:57;;;;;;;7.38;1.65;;;;;;;;;;5035985;28;20033;-67
2021/08/14 03:49:25;;;;;;;6.90;1.70;;;;;;;;;;5069663;28;20397;-68
2021/08/14 03:51:52;;;;;;;3.72;0.80;;;;;;;;;;5033520;28;20068;-67
2021/08/14 03:54:19;;;;;;;5.35;1.27;;;;;;;;;;5047822;28;20485;-68
2021/08/14 03:56:46;;;;;;;7.85;1.17;;;;;;;;;;5046599;28;20033;-69
2021/08/14 03:59:13;;;;;;;3.55;0.90;;;;;;;;;;5058405;28;20099;-68
2021/08/14 04:01:41;;;;;;;3.60;1.38;;;;;;;;;;5040116;28;20110;-67
2021/08/14 04:04:08;;;;;;;7.88;1.30;;;;;;;;;;5049750;28;20041;-68
2021/08/14 04:06:35;;;;;;;5.03;1.10;;;;;;;;;;5049906;28;20045;-68
2021/08/14 04:09:02;;;;;;;5.03;0.98;;;;;;;;;;5045863;28;20485;-69
2021/08/14 04:11:29;;;;;;;4.18;1.05;;;;;;;;;;5051190;28;20032;-68
2021/08/14 04:13:56;;;;;;;5.30;1.48;;;;;;;;;;5047025;28;20440;-69
2021/08/14 04:16:23;;;;;;;6.18;1.20;;;;;;;;;;5071016;28;20029;-68
2021/08/14 04:18:50;;;;;;;3.80;1.05;;;;;;;;;;5053136;28;20614;-68
2021/08/14 04:21:18;;;;;;;3.22;1.08;;;;;;;;;;5050136;28;20033;-69
2021/08/14 04:23:45;;;;;;;4.57;1.30;;;;;;;;;;5049262;28;20539;-68
2021/08/14 04:26:12;;;;;;;4.35;1.67;;;;;;;;;;5050671;28;20119;-68
2021/08/14 04:28:39;;;;;;;5.55;1.33;;;;;;;;;;5035502;28;20529;-69
2021/08/14 04:31:06;;;;;;;6.28;1.70;;;;;;;;;;5030919;28;20113;-68
2021/08/14 04:33:33;;;;;;;5.57;1.00;;;;;;;;;;5016491;28;20120;-68
2021/08/14 04:36:00;;;;;;;4.20;1.55;;;;;;;;;;5049508;28;20116;-69
2021/08/14 04:38:27;;;;;;;5.65;1.50;;;;;;;;;;5051997;28;20060;-69
2021/08/14 04:40:54;;;;;;;4.40;1.10;;;;;;;;;;5050976;28;20045;-69
2021/08/14 04:43:22;;;;;;;3.67;1.65;;;;;;;;;;5059500;28;20045;-69
2021/08/14 04:45:49;;;;;;;4.90;1.52;;;;;;;;;;5051931;28;20045;-70
2021/08/14 04:48:16;;;;;;;5.25;1.40;;;;;;;;;;5046544;28;20036;-70
2021/08/14 04:50:43;;;;;;;4.30;1.70;;;;;;;;;;5050623;28;20423;-70
2021/08/14 04:53:10;;;;;;;4.50;1.20;;;;;;;;;;5063673;28;20400;-69
2021/08/14 04:55:37;;;;;;;5.85;2.00;;;;;;;;;;5065995;28;20083;-70
2021/08/14 04:58:04;;;;;;;5.10;1.77;;;;;;;;;;5070830;28;20028;-69
2021/08/14 05:00:31;;;;;;;3.75;1.48;;;;;;;;;;5074457;28;20039;-70
2021/08/14 05:02:59;;;;;;;4.97;1.27;;;;;;;;;;5069308;28;20048;-69
2021/08/14 05:05:26;;;;;;;6.85;1.58;;;;;;;;;;5071073;28;20033;-70
2021/08/14 05:07:53;;;;;;;3.83;1.40;;;;;;;;;;5048726;28;20045;-70
2021/08/14 05:10:20;;;;;;;6.50;1.80;;;;;;;;;;5045748;28;20393;-67
2021/08/14 05:12:47;;;;;;;5.50;1.55;;;;;;;;;;5058526;28;20051;-68
2021/08/14 05:15:14;;;;;;;4.90;1.15;;;;;;;;;;5061172;28;20053;-68
2021/08/14 05:17:41;;;;;;;3.60;1.13;;;;;;;;;;5057905;28;20024;-69
2021/08/14 05:20:09;;;;;;;4.90;1.20;;;;;;;;;;5066917;28;20048;-69
2021/08/14 05:22:36;;;;;;;5.10;1.65;;;;;;;;;;5059614;28;20040;-69
2021/08/14 05:25:03;;;;;;;4.35;1.30;;;;;;;;;;5049428;28;20041;-68
2021/08/14 05:27:31;;;;;;;4.32;1.20;;;;;;;;;;5054949;28;20420;-67
2021/08/14 05:29:58;;;;;;;4.75;1.15;;;;;;;;;;5055002;28;20040;-67
2021/08/14 05:32:25;;;;;;;6.40;1.83;;;;;;;;;;5054840;28;20103;-67
2021/08/14 05:34:52;;;;;;;5.47;1.83;;;;;;;;;;5043715;28;20080;-68
2021/08/14 05:37:19;;;;;;;5.38;1.40;;;;;;;;;;5040535;28;20083;-68
2021/08/14 05:39:46;;;;;;;6.25;1.40;;;;;;;;;;5052358;28;20043;-68
2021/08/14 05:42:13;;;;;;;8.85;3.85;;;;;;;;;;5053899;28;20041;-67
2021/08/14 05:44:40;;;;;;;5.18;2.20;;;;;;;;;;5066329;28;20032;-67
2021/08/14 05:47:08;;;;;;;7.88;2.10;;;;;;;;;;5048913;28;20037;-68
2021/08/14 05:49:35;;;;;;;5.45;1.73;;;;;;;;;;5056198;28;20083;-68
2021/08/14 05:52:04;;;;;;;5.47;1.48;;;;;;;;;;5051091;28;20452;-68
2021/08/14 05:54:33;;;;;;;5.60;1.80;;;;;;;;;;5046378;28;20028;-68
2021/08/14 05:57:01;;;;;;;4.78;1.65;;;;;;;;;;5042399;28;20021;-68
2021/08/14 05:59:28;;;;;;;6.28;2.67;;;;;;;;;;5047247;28;20040;-68
2021/08/14 06:01:55;;;;;;;6.55;3.05;;;;;;;;;;5049279;28;20148;-67
2021/08/14 06:04:22;;;;;;;4.60;2.38;;;;;;;;;;5047091;28;20064;-69
2021/08/14 06:06:49;;;;;;;6.45;2.45;;;;;;;;;;5049154;28;20120;-68
2021/08/14 06:09:16;;;;;;;4.15;1.90;;;;;;;;;;5053254;28;20094;-67
2021/08/14 06:11:43;;;;;;;4.45;1.95;;;;;;;;;;5031788;28;20043;-69
2021/08/14 06:14:11;;;;;;;7.55;1.80;;;;;;;;;;5049054;28;20037;-68
2021/08/14 06:16:39;;;;;;;4.07;2.13;;;;;;;;;;5056053;28;20041;-68
2021/08/14 06:19:07;;;;;;;3.97;1.80;;;;;;;;;;5059968;28;20048;-69
2021/08/14 06:21:34;;;;;;;6.07;2.85;;;;;;;;;;5062527;28;20045;-68
2021/08/14 06:24:01;;;;;;;6.25;2.38;;;;;;;;;;5050623;28;20473;-69
2021/08/14 06:26:28;;;;;;;5.95;2.30;;;;;;;;;;5050843;28;20025;-69
2021/08/14 06:28:55;;;;;;;4.50;2.15;;;;;;;;;;5044968;28;20524;-69
2021/08/14 06:31:22;;;;;;;6.22;3.40;;;;;;;;;;5047847;28;20082;-67
2021/08/14 06:33:49;;;;;;;12.15;7.63;;;;;;;;;;5064431;28;20037;-67
2021/08/14 06:36:16;;;;;;;8.85;4.22;;;;;;;;;;5072372;28;20039;-68
2021/08/14 06:38:43;;;;;;;6.80;3.47;;;;;;;;;;5068933;28;20036;-68
2021/08/14 06:41:11;;;;;;;6.30;3.05;;;;;;;;;;5062285;28;20107;-68
2021/08/14 06:43:38;;;;;;;5.82;3.22;;;;;;;;;;5048264;28;20103;-68
2021/08/14 06:46:05;;;;;;;5.40;3.10;;;;;;;;;;5052221;28;20040;-69
2021/08/14 06:48:36;;;;;;;7.03;3.28;;;;;;;;;;5053446;28;20061;-68
2021/08/14 06:51:03;;;;;;;5.10;2.92;;;;;;;;;;5051906;28;20031;-67
2021/08/14 06:53:31;;;;;;;4.22;2.80;;;;;;;;;;5062424;28;20525;-68
2021/08/14 06:55:59;;;;;;;5.93;3.97;;;;;;;;;;5071996;28;20071;-67
2021/08/14 06:58:26;;;;;;;4.25;2.72;;;;;;;;;;5068515;28;20148;-68
2021/08/14 07:00:53;;;;;;;5.30;2.38;;;;;;;;;;5071274;28;20064;-67
2021/08/14 07:03:20;;;;;;;3.47;2.13;;;;;;;;;;5065141;28;20135;-68
2021/08/14 07:05:47;;;;;;;5.50;2.00;;;;;;;;;;5058168;28;20448;-68
2021/08/14 07:08:14;;;;;;;5.63;2.30;;;;;;;;;;5060139;28;20033;-69
2021/08/14 07:10:41;;;;;;;5.55;2.55;;;;;;;;;;5072006;28;20068;-68
2021/08/14 07:13:08;;;;;;;5.70;2.35;;;;;;;;;;5065365;28;20085;-69
2021/08/14 07:15:35;;;;;;;5.53;2.60;;;;;;;;;;5050053;28;20037;-68
2021/08/14 07:18:03;;;;;;;5.68;2.58;;;;;;;;;;5057931;28;20082;-68
2021/08/14 07:20:30;;;;;;;4.15;2.13;;;;;;;;;;5071621;28;20033;-67
2021/08/14 07:22:57;;;;;;;5.63;2.25;;;;;;;;;;5059592;28;20037;-69
2021/08/14 07:25:24;;;;;;;5.75;1.85;;;;;;;;;;5053741;28;20041;-69
2021/08/14 07:27:52;;;;;;;4.18;1.83;;;;;;;;;;5068463;28;20029;-69
2021/08/14 07:30:19;;;;;;;4.03;2.40;;;;;;;;;;5071782;28;20087;-68
2021/08/14 07:32:46;;;;;;;5.38;2.38;;;;;;;;;;5068263;28;20028;-69
2021/08/14 07:35:13;;;;;;;5.85;2.28;;;;;;;;;;5071721;28;20029;-69
2021/08/14 07:37:50;;;;;;;5.70;3.00;;;;;;;;;;5064158;28;20033;-69
2021/08/14 07:40:18;;;;;;;3.35;1.52;;;;;;;;;;5031864;28;20564;-68
2021/08/14 07:42:45;;;;;;;6.65;2.65;;;;;;;;;;5052811;28;20063;-68
2021/08/14 07:45:17;;;;;;;5.75;1.90;;;;;;;;;;5053682;28;20037;-68
2021/08/14 07:47:47;;;;;;;6.47;2.40;;;;;;;;;;5068543;28;20044;-68
2021/08/14 07:50:17;;;;;;;6.72;2.53;;;;;;;;;;5053551;28;20066;-68
2021/08/14 07:52:44;;;;;;;5.88;2.83;;;;;;;;;;5068990;28;20028;-68
2021/08/14 07:55:12;;;;;;;8.20;1.88;;;;;;;;;;5045000;28;20036;-68
2021/08/14 07:57:40;;;;;;;8.35;2.50;;;;;;;;;;5032597;28;20037;-68
2021/08/14 08:00:07;;;;;;;4.50;1.92;;;;;;;;;;5063130;28;20486;-68
2021/08/14 08:02:35;;;;;;;5.88;2.60;;;;;;;;;;5047390;28;20049;-68
2021/08/14 08:05:02;;;;;;;7.57;2.20;;;;;;;;;;5047780;28;20025;-68
2021/08/14 08:07:30;;;;;;;6.95;3.10;;;;;;;;;;5049936;28;20041;-69
2021/08/14 08:09:57;;;;;;;7.03;3.40;;;;;;;;;;5050161;28;20033;-68
2021/08/14 08:12:24;;;;;;;9.70;3.17;;;;;;;;;;5026694;28;20029;-69
2021/08/14 08:14:51;;;;;;;7.00;2.70;;;;;;;;;;5053524;28;20037;-69
2021/08/14 08:17:19;;;;;;;7.15;2.92;;;;;;;;;;5050751;28;20532;-69
2021/08/14 08:19:46;;;;;;;6.57;2.70;;;;;;;;;;5053496;28;20048;-69
2021/08/14 08:22:13;;;;;;;7.18;3.28;;;;;;;;;;5053972;28;20049;-69
2021/08/14 08:24:40;;;;;;;7.82;3.75;;;;;;;;;;5042746;28;20040;-69
2021/08/14 08:27:07;;;;;;;8.50;4.07;;;;;;;;;;5053919;28;20029;-70
2021/08/14 08:29:34;;;;;;;5.85;3.33;;;;;;;;;;5056617;28;20041;-70
2021/08/14 08:32:01;;;;;;;6.00;2.50;;;;;;;;;;5054062;28;20378;-70
2021/08/14 08:34:28;;;;;;;8.93;2.45;;;;;;;;;;5051902;28;20029;-70
2021/08/14 08:36:56;;;;;;;6.82;2.42;;;;;;;;;;5039426;28;20045;-70
2021/08/14 08:39:23;;;;;;;5.90;2.33;;;;;;;;;;5052054;28;21892;-71
2021/08/14 08:41:51;;;;;;;3.20;2.30;;;;;;;;;;5035226;28;20135;-71
2021/08/14 08:44:19;;;;;;;7.25;3.20;;;;;;;;;;5054840;28;20530;-71
2021/08/14 08:46:47;;;;;;;4.10;2.42;;;;;;;;;;5050723;28;20032;-71
2021/08/14 08:49:15;;;;;;;6.57;2.78;;;;;;;;;;5025554;28;20040;-71
2021/08/14 08:51:42;;;;;;;5.40;2.30;;;;;;;;;;5054169;28;20123;-70
2021/08/14 08:54:12;;;;;;;6.15;2.20;;;;;;;;;;5053530;28;20033;-70
2021/08/14 08:56:39;;;;;;;5.82;2.90;;;;;;;;;;5032849;28;20057;-70
2021/08/14 08:59:11;;;;;;;5.13;2.85;;;;;;;;;;5050271;28;20044;-71
2021/08/14 09:01:38;;;;;;;5.28;2.83;;;;;;;;;;5051688;28;20041;-70
2021/08/14 09:04:24;;;;;;;5.93;3.47;;;;;;;;;;5052542;28;20040;-71
2021/08/14 09:06:51;;;;;;;5.95;2.70;;;;;;;;;;5042375;28;20480;-70
2021/08/14 09:09:18;;;;;;;7.35;2.83;;;;;;;;;;5054922;28;20029;-70
2021/08/14 09:11:52;;;;;;;6.47;2.47;;;;;;;;;;5026171;28;20029;-70
2021/08/14 09:14:19;;;;;;;8.63;3.05;;;;;;;;;;5042394;28;20030;-70
2021/08/14 09:16:47;;;;;;;8.27;3.28;;;;;;;;;;5051283;28;20041;-69
2021/08/14 09:19:23;;;;;;;6.10;2.90;;;;;;;;;;5050212;28;20444;-70
2021/08/14 09:21:51;;;;;;;7.32;3.35;;;;;;;;;;5052890;28;20059;-70
2021/08/14 09:24:36;;;;;;;7.75;4.10;;;;;;;;;;5052556;28;20040;-70
2021/08/14 09:27:04;;;;;;;7.70;4.22;;;;;;;;;;5052048;28;20471;-70
2021/08/14 09:29:33;;;;;;;8.40;4.18;;;;;;;;;;5051529;28;20037;-69
2021/08/14 09:32:00;;;;;;;7.35;4.13;;;;;;;;;;5036993;28;20120;-70
2021/08/14 09:34:27;;;;;;;7.57;3.65;;;;;;;;;;5055411;28;20550;-69
2021/08/14 09:37:06;;;;;;;8.15;3.42;;;;;;;;;;5054810;28;20496;-69
2021/08/14 09:39:34;;;;;;;8.75;3.70;;;;;;;;;;5054333;28;20033;-68
2021/08/14 09:42:10;;;;;;;8.93;3.45;;;;;;;;;;5053238;28;20091;-69
2021/08/14 09:44:37;;;;;;;8.48;3.45;;;;;;;;;;5055294;28;20433;-68
2021/08/14 09:47:14;;;;;;;8.77;3.25;;;;;;;;;;5035504;28;20032;-69
2021/08/14 09:49:55;;;;;;;5.85;2.80;;;;;;;;;;5049598;28;20093;-69
2021/08/14 09:52:24;;;;;;;3.90;2.40;;;;;;;;;;5020883;28;20045;-68
2021/08/14 09:54:51;;;;;;;9.18;3.35;;;;;;;;;;5048137;28;20037;-68
2021/08/14 09:57:19;;;;;;;6.85;2.92;;;;;;;;;;5053779;28;20033;-69
2021/08/14 09:59:47;;;;;;;7.40;3.05;;;;;;;;;;5033905;28;20072;-68
2021/08/14 10:02:20;;;;;;;7.07;2.95;;;;;;;;;;5053081;28;20045;-69
2021/08/14 10:04:49;;;;;;;6.80;3.45;;;;;;;;;;5047946;28;20037;-69
2021/08/14 10:07:16;;;;;;;12.48;4.30;;;;;;;;;;5052896;28;20049;-69
2021/08/14 10:09:44;;;;;;;7.22;4.40;;;;;;;;;;5033545;28;20508;-69
2021/08/14 10:12:11;;;;;;;13.40;5.65;;;;;;;;;;5046088;28;20449;-68
2021/08/14 10:14:39;;;;;;;12.13;6.50;;;;;;;;;;5052118;28;20068;-68
2021/08/14 10:17:10;;;;;;;10.82;6.55;;;;;;;;;;5053006;28;20025;-68
2021/08/14 10:19:38;;;;;;;11.73;6.55;;;;;;;;;;5053770;28;20044;-68
2021/08/14 10:22:06;;;;;;;12.27;6.25;;;;;;;;;;5052148;28;20416;-68
2021/08/14 10:24:40;;;;;;;11.50;7.10;;;;;;;;;;5063813;28;20696;-69
2021/08/14 10:27:07;;;;;;;;;;;;;;;;;;5053062;28;20120;-68
2021/08/14 10:29:52;;;;;;;13.50;7.55;;;;;;;;;;5052421;28;19909;-68
2021/08/14 10:32:39;;;;;;;13.15;6.82;;;;;;;;;;5053156;28;20044;-69
2021/08/14 10:35:17;;;;;;;11.70;6.07;;;;;;;;;;5035280;28;20564;-69
2021/08/14 10:37:45;;;;;;;8.63;5.55;;;;;;;;;;5052441;28;20029;-68
2021/08/14 10:40:13;;;;;;;12.13;5.18;;;;;;;;;;5033143;28;20156;-69
2021/08/14 10:42:58;;;;;;;8.43;4.32;;;;;;;;;;5049844;28;20496;-69
2021/08/14 10:45:35;;;;;;;10.35;4.68;;;;;;;;;;5033405;28;20086;-68
2021/08/14 10:48:04;;;;;;;8.52;4.30;;;;;;;;;;5033793;28;20025;-68
2021/08/14 10:50:32;;;;;;;13.85;5.40;;;;;;;;;;5055983;28;20480;-68
2021/08/14 10:53:11;;;;;;;9.10;4.70;;;;;;;;;;5050910;28;20390;-68
2021/08/14 10:55:39;;;;;;;6.55;4.43;;;;;;;;;;5052861;28;20377;-68
2021/08/14 10:58:24;;;;;;;10.98;4.20;;;;;;;;;;5050504;28;20609;-69
2021/08/14 11:00:52;;;;;;;9.90;5.05;;;;;;;;;;5051179;28;20108;-69
2021/08/14 11:03:21;;;;;;;9.23;4.47;;;;;;;;;;5051479;28;20049;-70
2021/08/14 11:05:48;;;;;;;9.90;4.78;;;;;;;;;;5068315;28;20059;-69
2021/08/14 11:08:33;;;;;;;10.02;5.30;;;;;;;;;;5053440;28;20489;-70
2021/08/14 11:11:00;;;;;;;11.15;5.13;;;;;;;;;;5051150;28;20943;-69
2021/08/14 11:13:30;;;;;;;9.35;5.97;;;;;;;;;;5052318;28;20044;-69
2021/08/14 11:15:57;;;;;;;9.57;4.68;;;;;;;;;;5053153;28;20044;-69
2021/08/14 11:18:43;;;;;;;7.95;4.68;;;;;;;;;;5051975;28;20143;-69
2021/08/14 11:21:10;;;;;;;12.73;4.97;;;;;;;;;;5027404;28;20137;-69
2021/08/14 11:23:56;;;;;;;10.82;5.78;;;;;;;;;;5032133;28;20045;-69
2021/08/14 11:26:36;;;;;;;11.63;5.80;;;;;;;;;;5035321;28;20059;-69
2021/08/14 11:29:04;;;;;;;11.15;5.85;;;;;;;;;;5044579;28;20040;-70
2021/08/14 11:31:31;;;;;;;14.75;8.30;;;;;;;;;;5050732;28;20039;-69
2021/08/14 11:34:02;;;;;;;16.13;8.68;;;;;;;;;;5050854;28;20053;-70
2021/08/14 11:36:30;;;;;;;20.23;9.63;;;;;;;;;;5050726;28;20377;-70
2021/08/14 11:39:02;;;;;;;14.80;8.65;;;;;;;;;;5049244;28;20051;-70
2021/08/14 11:41:29;;;;;;;14.02;7.35;;;;;;;;;;5033398;28;20033;-69
2021/08/14 11:44:00;;;;;;;23.05;8.85;;;;;;;;;;5047578;28;20493;-69
2021/08/14 11:46:27;;;;;;;14.75;8.07;;;;;;;;;;5048984;28;20466;-69
2021/08/14 11:48:55;;;;;;;14.55;7.72;;;;;;;;;;5046810;28;20493;-70
2021/08/14 11:51:27;;;;;;;12.27;7.90;;;;;;;;;;5052027;28;20033;-70
2021/08/14 11:54:04;;;;;;;13.98;8.13;;;;;;;;;;5049121;28;20025;-69
2021/08/14 11:56:32;;;;;;;13.85;7.35;;;;;;;;;;5054239;28;20068;-70
2021/08/14 11:59:02;;;;;;;11.73;7.03;;;;;;;;;;5051102;28;20120;-70
2021/08/14 12:01:29;;;;;;;15.73;6.43;;;;;;;;;;5053161;28;20063;-70
2021/08/14 12:04:00;;;;;;;12.13;5.38;;;;;;;;;;5049178;28;20036;-70
2021/08/14 12:06:34;;;;;;;9.98;5.72;;;;;;;;;;5031422;28;20132;-70
2021/08/14 12:09:02;;;;;;;12.65;5.43;;;;;;;;;;5057252;28;20033;-70
2021/08/14 12:11:30;;;;;;;10.02;5.38;;;;;;;;;;5037562;28;20056;-70
2021/08/14 12:14:15;;;;;;;10.77;4.57;;;;;;;;;;5056914;28;20049;-70
2021/08/14 12:16:43;;;;;;;10.65;4.78;;;;;;;;;;5029424;28;20408;-70
2021/08/14 12:19:15;;;;;;;11.07;4.20;;;;;;;;;;5053946;28;20037;-69
2021/08/14 12:21:42;;;;;;;8.38;5.90;;;;;;;;;;5053149;28;20506;-70
2021/08/14 12:24:10;;;;;;;8.82;5.45;;;;;;;;;;5055245;28;20059;-69
2021/08/14 12:26:37;;;;;;;12.30;7.00;;;;;;;;;;5054859;28;20440;-69
2021/08/14 12:29:10;;;;;;;11.50;7.53;;;;;;;;;;5044889;28;20036;-69
2021/08/14 12:31:47;;;;;;;12.82;7.93;;;;;;;;;;5050782;28;20033;-70
2021/08/14 12:34:25;;;;;;;10.65;6.63;;;;;;;;;;5051957;28;20095;-69
2021/08/14 12:37:15;;;;;;;23.42;16.70;;;;;;;;;;5041394;28;20029;-69
2021/08/14 12:39:56;;;;;;;45.42;31.15;;;;;;;;;;5039140;28;20040;-69
2021/08/14 12:42:23;;;;;;;70.07;54.33;;;;;;;;;;5052789;28;20829;-69
2021/08/14 12:44:51;;;;;;;95.22;68.65;;;;;;;;;;5054344;28;20077;-69
2021/08/14 12:47:31;;;;;;;112.80;84.32;;;;;;;;;;5050531;28;20037;-70
2021/08/14 12:50:10;;;;;;;154.43;114.93;;;;;;;;;;5053528;28;20029;-69
2021/08/14 12:52:38;;;;;;;130.88;97.97;;;;;;;;;;5056655;28;20037;-69
2021/08/14 12:55:05;;;;;;;98.18;81.38;;;;;;;;;;5061574;28;20040;-70
2021/08/14 12:57:32;;;;;;;105.28;78.68;;;;;;;;;;5052467;28;20120;-69
2021/08/14 13:00:00;;;;;;;100.70;75.53;;;;;;;;;;5044739;28;20041;-69
2021/08/14 13:02:27;;;;;;;97.22;72.82;;;;;;;;;;5050703;28;20128;-69
2021/08/14 13:04:59;;;;;;;90.20;70.65;;;;;;;;;;5053499;28;20114;-69
2021/08/14 13:07:26;;;;;;;87.60;64.18;;;;;;;;;;5055880;28;20033;-70
2021/08/14 13:09:53;;;;;;;91.53;65.28;;;;;;;;;;5054544;28;20445;-69
2021/08/14 13:12:20;;;;;;;95.60;69.05;;;;;;;;;;5064386;28;20048;-69
2021/08/14 13:14:47;;;;;;;100.80;76.47;;;;;;;;;;5051913;28;20035;-68
2021/08/14 13:17:17;;;;;;;98.60;74.50;;;;;;;;;;5045202;28;20040;-70
2021/08/14 13:19:44;;;;;;;94.32;75.50;;;;;;;;;;5053389;28;20033;-68
2021/08/14 13:22:11;;;;;;;101.78;75.57;;;;;;;;;;5051628;28;20456;-68
2021/08/14 13:24:38;;;;;;;90.30;70.30;;;;;;;;;;5058573;28;20095;-68
2021/08/14 13:27:06;;;;;;;87.68;68.65;;;;;;;;;;5050996;28;20085;-68
2021/08/14 13:29:33;;;;;;;85.53;63.95;;;;;;;;;;5038771;28;20061;-68
2021/08/14 13:32:00;;;;;;;79.75;64.38;;;;;;;;;;5051445;28;20059;-68
2021/08/14 13:34:27;;;;;;;76.78;58.35;;;;;;;;;;5072168;28;20097;-69
2021/08/14 13:36:54;;;;;;;69.00;54.50;;;;;;;;;;5049893;28;20060;-68
2021/08/14 13:39:22;;;;;;;68.50;51.53;;;;;;;;;;5053001;28;20037;-68
2021/08/14 13:41:49;;;;;;;67.57;50.17;;;;;;;;;;5055130;28;20037;-68
2021/08/14 13:44:16;;;;;;;61.90;49.92;;;;;;;;;;5070895;28;20052;-68
2021/08/14 13:46:43;;;;;;;63.20;47.42;;;;;;;;;;5062442;28;20036;-68
2021/08/14 13:49:12;;;;;;;53.97;41.25;;;;;;;;;;5045506;28;20041;-69
2021/08/14 13:51:40;;;;;;;52.33;38.95;;;;;;;;;;5062243;28;20354;-69
2021/08/14 13:54:09;;;;;;;49.20;35.63;;;;;;;;;;5059512;28;20115;-69
2021/08/14 13:56:36;;;;;;;43.97;34.13;;;;;;;;;;5052456;28;20401;-69
2021/08/14 13:59:03;;;;;;;47.17;31.85;;;;;;;;;;5049317;28;20036;-69
2021/08/14 14:01:30;;;;;;;44.30;30.63;;;;;;;;;;5047772;28;20394;-68
2021/08/14 14:03:57;;;;;;;46.28;29.88;;;;;;;;;;5049762;28;20107;-68
2021/08/14 14:06:25;;;;;;;44.33;30.77;;;;;;;;;;5053368;28;20048;-69
2021/08/14 14:08:52;;;;;;;42.05;29.92;;;;;;;;;;5054161;28;20029;-68
2021/08/14 14:11:19;;;;;;;41.33;30.40;;;;;;;;;;5051461;28;20036;-69
2021/08/14 14:13:46;;;;;;;37.78;29.75;;;;;;;;;;5050269;28;20071;-68
2021/08/14 14:16:13;;;;;;;39.42;30.35;;;;;;;;;;5051035;28;20065;-69
2021/08/14 14:18:40;;;;;;;37.83;29.95;;;;;;;;;;5046823;28;20552;-68
2021/08/14 14:21:07;;;;;;;34.65;27.27;;;;;;;;;;5035364;28;20036;-69
2021/08/14 14:23:34;;;;;;;33.92;27.48;;;;;;;;;;5057744;28;20052;-68
2021/08/14 14:26:01;;;;;;;36.42;26.63;;;;;;;;;;5071360;28;20401;-69
2021/08/14 14:28:29;;;;;;;36.70;26.38;;;;;;;;;;5063378;28;20032;-68
2021/08/14 14:30:57;;;;;;;32.80;24.88;;;;;;;;;;5051866;28;20124;-69
2021/08/14 14:33:24;;;;;;;34.05;24.25;;;;;;;;;;5051373;28;20061;-69
2021/08/14 14:35:51;;;;;;;35.95;25.05;;;;;;;;;;5042390;28;20029;-69
2021/08/14 14:38:19;;;;;;;33.83;25.90;;;;;;;;;;5053379;28;20111;-70
2021/08/14 14:40:46;;;;;;;35.60;24.17;;;;;;;;;;5042558;28;20523;-68
2021/08/14 14:43:13;;;;;;;30.17;24.30;;;;;;;;;;5052660;28;20167;-68